Makassar, Indonesia

11:42 PM CIT on September 02, 2014 (GMT +0800)
Hasanuddin | Change Station
CLOSE
Current Station
Airport
Location: Makassar,
Elevation: 46 ft
Nearby Weather Stations

Elev 46 ft 5.06 °S, 119.55 °E | Updated 12 minutes ago

Partly Cloudy
Partly Cloudy
75 °F
Feels Like 75 °F
N
5
Wind Variable Wind from East

Today
High -- | Low -- °F
--% Chance of Precip.
Yesterday
High -- | Low -- °F
Precip. -- in
6:01 AM 6:02 PM
First Quarter, 52% visible
Pressure 29.89 in
Visibility 5.0 miles
Clouds Few 2100 ft
Dew Point 61 °F
Humidity 61%
Rainfall 0.00 in
Snow Depth Not available.
UV 0 out of 12
Pollen Not available.
Air Quality Not available.
Flu Activity Not available.
METAR WAAA 021530Z 09004KT 8000 FEW021 24/16 Q1012 NOSIG

More Conditions Fewer Conditions

Pressure 29.89 in
Visibility 5.0 miles
Clouds Few 2100 ft
Dew Point 61 °F
Humidity 61%
Rainfall 0.00 in
Snow Depth Not available.
UV 0 out of 12
Pollen Not available.
Air Quality Not available.
Flu Activity Not available.
METAR WAAA 021530Z 09004KT 8000 FEW021 24/16 Q1012 NOSIG

More Conditions Fewer Conditions

10-Day Weather Forecast

Almanac

Astronomy

Sep. 02, 2014 Rise Set
Actual Time 6:01 AM CIT 6:02 PM CIT
Civil Twilight 5:40 AM CIT 6:23 PM CIT
Nautical Twilight 5:15 AM CIT 6:47 PM CIT
Astronomical Twilight 4:51 AM CIT 7:11 PM CIT
Moon 11:29 AM CIT No Moon Set
Length of Visible Light 12h 42m
Length of Day
12h 00m
Tomorrow will be 0m 15s longer.
First Quarter, 52% of the Moon is Illuminated
Today
First Quarter
Sep 8
Full
Sep 15
Last Quarter
Sep 24
New
Oct 1
First Quarter

Today's Extremes

Country Highs Country Lows

Community

WunderPhotos

Upload Photos

1,749,705 photos uploaded!

Nearby

Snow Depth

Not available.

Earthquake Activity

City Distance Mag. Time & Date
No recent earthquake activity has been reported nearby.
Minimum magnitude displayed is 2.5.

Coastal Water Temperatures

Place Temperature
No Stations Reporting

Nearby Weather Stations